Impacts TAF Board INFO
FOR SITUATIONAL AWARENESS. NOT TO BE USED FOR FLIGHT PLANNING PURPOSES.
IDs:

KCSG - Columbus Arpt, GA, US

Issued at 1725 UTC 15 Aug 2018
Updated at 2043 UTC 15 Aug 2018
Potential Impact None Slight Moderate High
Time<<16/09Z 16/10Z 16/11Z 16/12Z 16/13Z 16/14Z 16/15Z 16/16Z 16/17Z 16/18Z 16/19Z 16/20Z 16/21Z>>
Type PRVL PRVL PRVL PRVL PRVL PRVL PRVL PRVL PRVL
VIS 4 4 4 4 >6 >6 >6 >6 >6
CIG -- -- -- -- -- -- -- -- --
Cover SCT SCT SCT SCT SCT SCT SCT SCT SCT
FltCat MVFR MVFR MVFR MVFR VFR VFR VFR VFR VFR
WX BR BR BR BR -- -- -- -- --
WDir VRB VRB VRB VRB VRB VRB VRB 190 190
WSpd 0 0 0 0 0 0 0 6 6
WGst -- -- -- -- -- -- -- -- --

Raw TAF
KCSG 151725Z 1518/1618 20004KT P6SM FEW040 SCT120
  FM160100 VRB03KT P6SM SCT120
  FM160900 00000KT 4SM BR SCT250
  FM161300 00000KT P6SM SCT250
  FM161600 19006KT P6SM SCT045


METAR Board
Radar Display
Forecast Discussion

FOR SITUATIONAL AWARENESS. NOT TO BE USED FOR FLIGHT PLANNING PURPOSES.